Time;durP1;ratioP1;P1;durP2;ratioP2;P2;SDS_P1;SDS_P2;PMS_P1;PMS_P2;Temp;Humidity;BMP_temperature;BMP_pressure;BME280_temperature;BME280_humidity;BME280_pressure;Samples;Min_cycle;Max_cycle;Signal;HPM_P1;HPM_P2
2021/07/22 00:02:07;;;;;;;25.80;23.90;;;;;;;;;;5037674;28;20432;-96
2021/07/22 00:04:35;;;;;;;26.13;24.13;;;;;;;;;;5037044;28;20438;-96
2021/07/22 00:07:02;;;;;;;27.20;25.17;;;;;;;;;;5037465;28;20498;-96
2021/07/22 00:09:31;;;;;;;26.17;24.37;;;;;;;;;;5037188;28;20448;-96
2021/07/22 00:11:59;;;;;;;25.63;23.87;;;;;;;;;;5020137;28;20415;-96
2021/07/22 00:14:28;;;;;;;26.63;24.60;;;;;;;;;;5037488;28;20510;-96
2021/07/22 00:16:59;;;;;;;26.93;25.03;;;;;;;;;;5037410;28;20452;-96
2021/07/22 00:25:15;;;;;;;26.87;24.77;;;;;;;;;;4975013;29;20442;-96
2021/07/22 00:33:20;;;;;;;27.57;25.67;;;;;;;;;;4975517;28;20476;-96
2021/07/22 00:42:21;;;;;;;27.80;25.70;;;;;;;;;;4976725;29;20407;-96
2021/07/22 00:44:59;;;;;;;27.17;25.00;;;;;;;;;;4975335;28;20471;-96
2021/07/22 00:47:26;;;;;;;26.83;24.83;;;;;;;;;;4976704;29;20447;-96
2021/07/22 00:49:54;;;;;;;28.30;26.10;;;;;;;;;;4960782;29;20458;-96
2021/07/22 00:52:22;;;;;;;27.00;25.10;;;;;;;;;;4976123;29;20503;-96
2021/07/22 00:54:49;;;;;;;27.40;25.30;;;;;;;;;;4971620;28;20523;-96
2021/07/22 00:57:19;;;;;;;28.23;26.23;;;;;;;;;;5035950;28;20436;-96
2021/07/22 00:59:46;;;;;;;28.53;25.90;;;;;;;;;;5019452;28;20449;-96
2021/07/22 01:02:14;;;;;;;27.70;25.60;;;;;;;;;;5035563;28;20428;-96
2021/07/22 01:04:45;;;;;;;26.30;24.30;;;;;;;;;;5036365;28;20446;-96
2021/07/22 01:07:12;;;;;;;28.10;26.10;;;;;;;;;;5018609;28;20460;-96
2021/07/22 01:09:39;;;;;;;27.40;25.30;;;;;;;;;;5036193;28;20411;-96
2021/07/22 01:12:07;;;;;;;27.70;25.60;;;;;;;;;;5018579;28;20403;-96
2021/07/22 01:14:36;;;;;;;28.00;26.00;;;;;;;;;;5036680;28;20474;-96
2021/07/22 01:17:07;;;;;;;27.97;25.60;;;;;;;;;;5036401;28;20435;-96
2021/07/22 01:19:35;;;;;;;26.90;24.90;;;;;;;;;;5036383;28;20469;-96
2021/07/22 01:22:04;;;;;;;29.37;27.07;;;;;;;;;;5019511;28;20446;-96
2021/07/22 01:24:33;;;;;;;28.37;26.27;;;;;;;;;;5061437;23;20494;-96
2021/07/22 01:27:00;;;;;;;26.90;24.97;;;;;;;;;;5034873;28;20466;-96
2021/07/22 01:29:28;;;;;;;28.40;26.30;;;;;;;;;;5018895;28;20434;-96
2021/07/22 01:31:55;;;;;;;26.77;24.60;;;;;;;;;;5018350;28;20455;-96
2021/07/22 01:34:26;;;;;;;28.30;26.30;;;;;;;;;;5018641;28;20445;-96
2021/07/22 01:36:53;;;;;;;27.87;25.57;;;;;;;;;;5035464;28;20471;-96
2021/07/22 01:39:23;;;;;;;26.30;24.47;;;;;;;;;;5018132;28;20444;-96
2021/07/22 01:41:50;;;;;;;27.90;25.80;;;;;;;;;;5017820;28;20450;-96
2021/07/22 01:44:18;;;;;;;28.37;26.17;;;;;;;;;;5035403;28;20447;-96
2021/07/22 01:46:46;;;;;;;27.67;25.57;;;;;;;;;;5035864;28;20448;-96
2021/07/22 01:49:13;;;;;;;27.00;25.13;;;;;;;;;;5018510;28;20409;-96
2021/07/22 01:51:41;;;;;;;27.13;25.10;;;;;;;;;;5002960;28;20406;-96
2021/07/22 01:54:09;;;;;;;27.57;25.47;;;;;;;;;;5035051;28;20506;-96
2021/07/22 01:56:38;;;;;;;28.40;26.30;;;;;;;;;;5034878;28;20425;-96
2021/07/22 01:59:05;;;;;;;28.03;25.90;;;;;;;;;;5017943;28;20427;-96
2021/07/22 02:01:33;;;;;;;27.50;25.50;;;;;;;;;;5052675;28;20452;-96
2021/07/22 02:04:00;;;;;;;30.77;28.10;;;;;;;;;;5038461;28;20404;-96
2021/07/22 02:06:28;;;;;;;29.80;27.20;;;;;;;;;;5055364;28;20472;-96
2021/07/22 02:08:55;;;;;;;27.67;25.50;;;;;;;;;;5055243;28;20419;-96
2021/07/22 02:11:35;;;;;;;28.10;25.70;;;;;;;;;;5038096;28;20433;-96
2021/07/22 02:14:05;;;;;;;27.47;25.37;;;;;;;;;;5037436;28;20441;-96
2021/07/22 02:16:32;;;;;;;27.80;25.43;;;;;;;;;;5054489;28;20432;-96
2021/07/22 02:19:00;;;;;;;27.27;25.27;;;;;;;;;;5055085;28;20412;-96
2021/07/22 02:21:27;;;;;;;27.60;25.70;;;;;;;;;;5055397;28;20473;-96
2021/07/22 02:23:55;;;;;;;28.83;26.60;;;;;;;;;;5038275;28;20478;-96
2021/07/22 02:26:22;;;;;;;28.07;25.50;;;;;;;;;;5055675;28;20434;-96
2021/07/22 02:28:53;;;;;;;27.20;24.93;;;;;;;;;;5037970;28;20431;-96
2021/07/22 02:31:23;;;;;;;27.70;25.40;;;;;;;;;;5072678;23;20491;-96
2021/07/22 02:33:51;;;;;;;27.57;25.57;;;;;;;;;;5018837;28;20452;-96
2021/07/22 02:36:19;;;;;;;28.40;26.27;;;;;;;;;;5017423;28;20491;-96
2021/07/22 02:38:46;;;;;;;28.50;26.23;;;;;;;;;;5001741;28;20456;-96
2021/07/22 02:41:14;;;;;;;27.97;25.87;;;;;;;;;;5017784;28;20440;-96
2021/07/22 02:43:42;;;;;;;28.70;26.23;;;;;;;;;;5034455;28;20441;-96
2021/07/22 02:46:09;;;;;;;28.90;26.80;;;;;;;;;;5018379;28;20434;-96
2021/07/22 02:48:39;;;;;;;28.80;26.50;;;;;;;;;;5017430;28;20442;-96
2021/07/22 02:51:08;;;;;;;28.50;26.40;;;;;;;;;;5034325;28;20424;-96
2021/07/22 02:53:36;;;;;;;28.60;26.30;;;;;;;;;;5036784;28;20504;-96
2021/07/22 02:56:04;;;;;;;29.03;26.83;;;;;;;;;;5021804;28;20440;-96
2021/07/22 02:58:31;;;;;;;29.23;26.90;;;;;;;;;;5038558;28;20406;-96
2021/07/22 03:01:01;;;;;;;29.37;27.27;;;;;;;;;;5021414;28;20460;-96
2021/07/22 03:03:29;;;;;;;29.63;27.07;;;;;;;;;;5019889;28;20502;-96
2021/07/22 03:05:58;;;;;;;28.37;26.17;;;;;;;;;;5004384;28;20398;-96
2021/07/22 03:08:25;;;;;;;27.47;25.47;;;;;;;;;;5021068;28;20443;-96
2021/07/22 03:10:53;;;;;;;27.77;25.77;;;;;;;;;;5037542;28;20444;-96
2021/07/22 03:13:20;;;;;;;26.23;24.13;;;;;;;;;;5020471;28;20445;-96
2021/07/22 03:15:48;;;;;;;26.13;24.30;;;;;;;;;;5037546;28;20523;-96
2021/07/22 03:18:15;;;;;;;28.80;26.40;;;;;;;;;;5036827;28;20441;-96
2021/07/22 03:20:43;;;;;;;27.67;25.63;;;;;;;;;;5036803;28;20445;-96
2021/07/22 03:23:14;;;;;;;28.00;25.90;;;;;;;;;;5020418;28;20406;-96
2021/07/22 03:25:41;;;;;;;27.90;25.70;;;;;;;;;;5037085;28;20459;-96
2021/07/22 03:28:09;;;;;;;26.53;24.50;;;;;;;;;;5019891;28;20416;-96
2021/07/22 03:30:37;;;;;;;26.83;24.73;;;;;;;;;;5036667;28;20468;-96
2021/07/22 03:33:05;;;;;;;26.10;24.20;;;;;;;;;;5037109;28;20503;-96
2021/07/22 03:35:32;;;;;;;26.87;24.83;;;;;;;;;;5037284;28;20477;-96
2021/07/22 03:38:00;;;;;;;27.80;25.60;;;;;;;;;;5037452;28;20464;-96
2021/07/22 03:40:30;;;;;;;28.37;26.07;;;;;;;;;;5037325;28;20464;-96
2021/07/22 03:42:57;;;;;;;27.63;25.63;;;;;;;;;;5036866;28;20453;-96
2021/07/22 03:45:25;;;;;;;27.03;25.00;;;;;;;;;;5020538;28;20411;-96
2021/07/22 03:48:00;;;;;;;26.33;24.23;;;;;;;;;;5037029;28;20412;-96
2021/07/22 03:50:27;;;;;;;27.10;24.90;;;;;;;;;;5037260;28;20448;-96
2021/07/22 03:52:56;;;;;;;26.40;24.50;;;;;;;;;;5037767;28;20446;-96
2021/07/22 03:55:25;;;;;;;26.00;24.07;;;;;;;;;;5019274;28;20438;-96
2021/07/22 03:57:57;;;;;;;26.23;24.37;;;;;;;;;;5019952;28;20429;-96
2021/07/22 04:00:25;;;;;;;26.03;24.13;;;;;;;;;;5037027;28;20467;-96
2021/07/22 04:03:01;;;;;;;27.50;25.47;;;;;;;;;;5036806;28;20480;-96
2021/07/22 04:05:29;;;;;;;27.90;25.50;;;;;;;;;;5020661;28;20440;-96
2021/07/22 04:07:58;;;;;;;26.70;24.60;;;;;;;;;;5037223;28;20396;-96
2021/07/22 04:10:26;;;;;;;28.43;26.10;;;;;;;;;;5029162;28;20413;-87
2021/07/22 04:13:01;;;;;;;28.20;25.90;;;;;;;;;;5016050;28;20769;-87
2021/07/22 04:15:29;;;;;;;28.07;25.93;;;;;;;;;;5015870;28;20457;-88
2021/07/22 04:17:57;;;;;;;26.53;24.53;;;;;;;;;;5010254;28;20453;-96
2021/07/22 04:20:25;;;;;;;26.00;23.80;;;;;;;;;;5021046;28;20410;-96
2021/07/22 04:22:54;;;;;;;26.57;24.57;;;;;;;;;;5034195;28;20462;-90
2021/07/22 04:25:21;;;;;;;28.20;26.00;;;;;;;;;;5015747;28;20446;-88
2021/07/22 04:27:48;;;;;;;26.97;24.83;;;;;;;;;;5015762;28;20444;-87
2021/07/22 04:30:28;;;;;;;27.73;25.53;;;;;;;;;;5020449;28;20422;-96
2021/07/22 04:32:58;;;;;;;26.17;24.20;;;;;;;;;;5020469;28;20453;-96
2021/07/22 04:37:51;;;;;;;29.60;27.30;;;;;;;;;;5095184;23;20471;-88
2021/07/22 04:40:19;;;;;;;29.83;27.20;;;;;;;;;;5035362;28;20632;-87
2021/07/22 04:42:46;;;;;;;28.23;26.23;;;;;;;;;;5035167;28;20411;-87
2021/07/22 04:45:14;;;;;;;28.67;26.23;;;;;;;;;;5035189;28;20808;-87
2021/07/22 04:47:43;;;;;;;32.37;29.63;;;;;;;;;;5035136;28;20505;-87
2021/07/22 04:50:11;;;;;;;29.33;27.03;;;;;;;;;;5034837;28;20415;-87
2021/07/22 04:52:39;;;;;;;30.03;27.60;;;;;;;;;;5035001;28;20423;-88
2021/07/22 04:55:06;;;;;;;30.80;28.20;;;;;;;;;;5034755;28;20434;-88
2021/07/22 04:57:34;;;;;;;28.63;26.23;;;;;;;;;;5017207;28;20514;-87
2021/07/22 05:00:02;;;;;;;29.57;27.33;;;;;;;;;;5034791;28;20459;-87
2021/07/22 05:02:29;;;;;;;30.20;27.57;;;;;;;;;;5034822;28;20799;-88
2021/07/22 05:04:58;;;;;;;29.70;27.20;;;;;;;;;;5034920;28;20427;-88
2021/07/22 05:07:25;;;;;;;30.83;28.03;;;;;;;;;;5034758;28;20434;-88
2021/07/22 05:09:53;;;;;;;29.10;27.10;;;;;;;;;;5034772;28;20746;-87
2021/07/22 05:12:20;;;;;;;29.97;27.57;;;;;;;;;;5034747;28;20757;-89
2021/07/22 05:14:47;;;;;;;30.20;27.80;;;;;;;;;;5016852;28;20512;-88
2021/07/22 05:17:15;;;;;;;31.10;28.67;;;;;;;;;;5034477;28;20495;-88
2021/07/22 05:19:42;;;;;;;30.10;27.60;;;;;;;;;;5034758;28;20780;-88
2021/07/22 05:22:11;;;;;;;29.60;27.40;;;;;;;;;;5000829;28;20464;-88
2021/07/22 05:24:39;;;;;;;31.23;28.80;;;;;;;;;;5034588;28;20421;-88
2021/07/22 05:27:06;;;;;;;31.83;29.27;;;;;;;;;;5016822;28;20457;-88
2021/07/22 05:29:34;;;;;;;31.97;29.33;;;;;;;;;;5034433;28;20442;-89
2021/07/22 05:32:01;;;;;;;32.27;29.67;;;;;;;;;;5034201;28;20881;-88
2021/07/22 05:34:28;;;;;;;31.60;29.20;;;;;;;;;;5034350;28;20767;-88
2021/07/22 05:36:56;;;;;;;32.23;29.70;;;;;;;;;;5034001;28;20583;-88
2021/07/22 05:39:24;;;;;;;31.13;28.33;;;;;;;;;;5034868;28;20433;-88
2021/07/22 05:41:52;;;;;;;30.70;28.23;;;;;;;;;;5034091;28;20435;-88
2021/07/22 05:44:19;;;;;;;31.03;28.30;;;;;;;;;;5016756;28;20425;-88
2021/07/22 05:46:47;;;;;;;31.93;29.43;;;;;;;;;;5034266;28;20437;-88
2021/07/22 05:49:14;;;;;;;31.53;29.03;;;;;;;;;;5034862;28;20440;-88
2021/07/22 05:51:41;;;;;;;32.63;30.07;;;;;;;;;;5034941;28;20439;-89
2021/07/22 05:54:10;;;;;;;31.30;28.60;;;;;;;;;;5034100;28;20439;-88
2021/07/22 05:56:39;;;;;;;31.00;28.50;;;;;;;;;;5033914;28;20486;-88
2021/07/22 05:59:06;;;;;;;32.03;29.50;;;;;;;;;;5033988;28;20442;-88
2021/07/22 06:01:34;;;;;;;30.60;28.20;;;;;;;;;;5033828;28;20468;-88
2021/07/22 06:04:01;;;;;;;31.07;28.40;;;;;;;;;;5016514;28;20910;-88
2021/07/22 06:06:28;;;;;;;30.07;27.87;;;;;;;;;;5033867;28;20445;-88
2021/07/22 06:08:56;;;;;;;31.17;28.77;;;;;;;;;;5033880;28;20437;-88
2021/07/22 06:11:23;;;;;;;30.87;28.30;;;;;;;;;;5033779;28;20447;-88
2021/07/22 06:13:52;;;;;;;30.50;28.00;;;;;;;;;;5033934;28;20431;-88
2021/07/22 06:16:19;;;;;;;31.27;28.57;;;;;;;;;;5034119;28;20815;-88
2021/07/22 06:18:46;;;;;;;31.10;28.60;;;;;;;;;;5034116;28;20427;-88
2021/07/22 06:21:14;;;;;;;30.37;27.97;;;;;;;;;;5033644;28;20415;-88
2021/07/22 06:23:42;;;;;;;31.27;28.83;;;;;;;;;;5033736;28;20425;-88
2021/07/22 06:26:10;;;;;;;30.73;28.23;;;;;;;;;;5033713;28;20540;-88
2021/07/22 06:28:37;;;;;;;32.33;29.50;;;;;;;;;;5037420;28;20440;-88
2021/07/22 06:31:06;;;;;;;31.80;29.10;;;;;;;;;;5037412;28;20915;-88
2021/07/22 06:33:34;;;;;;;32.30;29.57;;;;;;;;;;5037659;28;20441;-88
2021/07/22 06:36:01;;;;;;;31.53;28.93;;;;;;;;;;5037830;28;20494;-88
2021/07/22 06:38:30;;;;;;;32.03;29.30;;;;;;;;;;5020079;28;20448;-88
2021/07/22 06:40:58;;;;;;;31.87;29.17;;;;;;;;;;5037222;28;20448;-88
2021/07/22 06:43:27;;;;;;;30.10;27.70;;;;;;;;;;5037515;28;20415;-88
2021/07/22 06:45:54;;;;;;;30.07;27.50;;;;;;;;;;5037189;28;20454;-88
2021/07/22 06:48:23;;;;;;;33.00;29.87;;;;;;;;;;5037812;28;20955;-88
2021/07/22 06:50:50;;;;;;;32.73;29.90;;;;;;;;;;5037155;28;20464;-88
2021/07/22 06:53:18;;;;;;;30.67;28.07;;;;;;;;;;5037107;28;20435;-89
2021/07/22 06:55:48;;;;;;;32.90;29.93;;;;;;;;;;5037058;28;20898;-88
2021/07/22 06:58:15;;;;;;;32.83;30.10;;;;;;;;;;5036948;28;20918;-88
2021/07/22 07:00:42;;;;;;;33.00;30.40;;;;;;;;;;5037002;28;20466;-89
2021/07/22 07:03:10;;;;;;;32.27;29.70;;;;;;;;;;5037164;28;20442;-89
2021/07/22 07:05:39;;;;;;;30.47;28.17;;;;;;;;;;5037061;28;20416;-88
2021/07/22 07:08:07;;;;;;;30.83;28.43;;;;;;;;;;5036726;28;20513;-88
2021/07/22 07:10:35;;;;;;;30.30;27.90;;;;;;;;;;5036937;28;20403;-88
2021/07/22 07:13:02;;;;;;;30.43;27.83;;;;;;;;;;5037081;28;20442;-88
2021/07/22 07:15:29;;;;;;;30.47;28.07;;;;;;;;;;5036816;28;20465;-89
2021/07/22 07:17:57;;;;;;;30.63;28.13;;;;;;;;;;5036803;28;20488;-88
2021/07/22 07:20:25;;;;;;;30.90;28.50;;;;;;;;;;5036887;28;20441;-88
2021/07/22 07:22:56;;;;;;;30.70;28.03;;;;;;;;;;5036786;28;20477;-88
2021/07/22 07:25:24;;;;;;;33.50;30.43;;;;;;;;;;5018895;28;20428;-88
2021/07/22 07:27:51;;;;;;;31.00;28.50;;;;;;;;;;5036712;28;20771;-89
2021/07/22 07:30:19;;;;;;;31.20;28.67;;;;;;;;;;5036713;28;20416;-88
2021/07/22 07:32:47;;;;;;;30.10;27.70;;;;;;;;;;5036572;28;20472;-88
2021/07/22 07:35:15;;;;;;;31.70;28.97;;;;;;;;;;5036563;28;20458;-88
2021/07/22 07:37:42;;;;;;;31.20;28.50;;;;;;;;;;5035757;28;20512;-88
2021/07/22 07:40:12;;;;;;;30.57;28.20;;;;;;;;;;5035870;28;20512;-88
2021/07/22 07:42:40;;;;;;;31.03;28.37;;;;;;;;;;5036186;28;20436;-88
2021/07/22 07:45:08;;;;;;;31.73;28.93;;;;;;;;;;5036193;28;20405;-89
2021/07/22 07:47:35;;;;;;;31.00;28.60;;;;;;;;;;5035986;28;20421;-89
2021/07/22 07:50:03;;;;;;;31.20;28.80;;;;;;;;;;5035928;28;20815;-88
2021/07/22 07:52:35;;;;;;;30.80;28.60;;;;;;;;;;5036348;28;20479;-88
2021/07/22 07:55:03;;;;;;;31.73;28.93;;;;;;;;;;5035768;28;20477;-88
2021/07/22 07:57:32;;;;;;;32.57;30.07;;;;;;;;;;5035615;28;20488;-89
2021/07/22 07:59:59;;;;;;;31.97;29.23;;;;;;;;;;5035616;28;20979;-88
2021/07/22 08:02:26;;;;;;;32.10;29.50;;;;;;;;;;5036006;28;20774;-88
2021/07/22 08:04:57;;;;;;;31.73;29.10;;;;;;;;;;5035985;28;20441;-88
2021/07/22 08:07:24;;;;;;;30.60;28.27;;;;;;;;;;5035591;28;20489;-89
2021/07/22 08:09:51;;;;;;;31.93;29.13;;;;;;;;;;5035939;28;20419;-89
2021/07/22 08:12:19;;;;;;;29.70;27.30;;;;;;;;;;5035604;28;20421;-88
2021/07/22 08:14:48;;;;;;;31.20;28.70;;;;;;;;;;5036238;28;20429;-88
2021/07/22 08:17:16;;;;;;;31.23;28.60;;;;;;;;;;5035313;28;20494;-88
2021/07/22 08:19:43;;;;;;;31.47;28.87;;;;;;;;;;5035464;28;20890;-88
2021/07/22 08:22:13;;;;;;;30.60;28.10;;;;;;;;;;5035713;28;20416;-88
2021/07/22 08:24:40;;;;;;;31.03;28.33;;;;;;;;;;5035599;28;20441;-89
2021/07/22 08:27:08;;;;;;;31.50;29.00;;;;;;;;;;5035103;28;20417;-87
2021/07/22 08:29:39;;;;;;;30.70;28.30;;;;;;;;;;5018155;28;20903;-88
2021/07/22 08:32:09;;;;;;;32.40;30.00;;;;;;;;;;5035266;28;20449;-88
2021/07/22 08:34:37;;;;;;;31.50;29.00;;;;;;;;;;5035431;28;20412;-88
2021/07/22 08:37:09;;;;;;;31.10;28.30;;;;;;;;;;5034840;28;20497;-88
2021/07/22 08:39:40;;;;;;;31.63;29.27;;;;;;;;;;5035347;28;20413;-88
2021/07/22 08:42:07;;;;;;;30.90;28.57;;;;;;;;;;5035359;28;20422;-88
2021/07/22 08:44:36;;;;;;;31.27;28.60;;;;;;;;;;5034910;28;20458;-88
2021/07/22 08:47:03;;;;;;;31.87;29.27;;;;;;;;;;5035077;28;20405;-88
2021/07/22 08:49:33;;;;;;;29.70;27.50;;;;;;;;;;5017524;28;20474;-88
2021/07/22 08:52:01;;;;;;;30.67;28.00;;;;;;;;;;5035160;28;20442;-88
2021/07/22 08:54:29;;;;;;;29.40;27.30;;;;;;;;;;5034819;28;20899;-88
2021/07/22 08:56:57;;;;;;;31.27;28.77;;;;;;;;;;5034890;28;20448;-89
2021/07/22 08:59:25;;;;;;;30.70;28.20;;;;;;;;;;5034570;28;20449;-88
2021/07/22 09:01:53;;;;;;;30.23;27.93;;;;;;;;;;5034609;28;20421;-87
2021/07/22 09:04:21;;;;;;;29.73;27.43;;;;;;;;;;5034564;28;20970;-88
2021/07/22 09:06:50;;;;;;;30.57;28.00;;;;;;;;;;5034804;28;20451;-88
2021/07/22 09:09:18;;;;;;;29.77;27.60;;;;;;;;;;5034696;28;20771;-88
2021/07/22 09:11:57;;;;;;;30.87;28.43;;;;;;;;;;5034807;28;20421;-88
2021/07/22 09:14:25;;;;;;;30.67;28.23;;;;;;;;;;5034691;28;20442;-88
2021/07/22 09:16:52;;;;;;;29.23;27.07;;;;;;;;;;5034596;28;20939;-89
2021/07/22 09:19:34;;;;;;;30.20;27.70;;;;;;;;;;5034532;28;20439;-88
2021/07/22 09:22:03;;;;;;;30.37;27.97;;;;;;;;;;5034293;28;20444;-88
2021/07/22 09:24:30;;;;;;;31.03;28.63;;;;;;;;;;5034456;28;20661;-88
2021/07/22 09:26:58;;;;;;;31.33;28.90;;;;;;;;;;5034282;28;20438;-88
2021/07/22 09:29:25;;;;;;;30.70;28.50;;;;;;;;;;5034353;28;20455;-88
2021/07/22 09:32:05;;;;;;;31.67;29.20;;;;;;;;;;5034498;28;20443;-88
2021/07/22 09:34:32;;;;;;;29.87;27.47;;;;;;;;;;5034416;28;20417;-88
2021/07/22 09:37:10;;;;;;;29.23;26.90;;;;;;;;;;5022663;28;21041;-87
2021/07/22 09:39:38;;;;;;;32.17;29.60;;;;;;;;;;5034377;28;20473;-88
2021/07/22 09:42:07;;;;;;;31.47;28.97;;;;;;;;;;5034463;28;20454;-88
2021/07/22 09:44:35;;;;;;;31.97;29.20;;;;;;;;;;5034413;28;20809;-88
2021/07/22 09:47:03;;;;;;;32.07;29.37;;;;;;;;;;5034315;28;20475;-88
2021/07/22 09:49:31;;;;;;;30.43;28.20;;;;;;;;;;5034395;28;20876;-88
2021/07/22 09:52:01;;;;;;;32.00;29.50;;;;;;;;;;5034129;28;20959;-88
2021/07/22 09:54:35;;;;;;;30.60;28.03;;;;;;;;;;5034157;28;20487;-87
2021/07/22 09:57:03;;;;;;;32.47;29.67;;;;;;;;;;5033081;28;20564;-88
2021/07/22 09:59:31;;;;;;;32.90;30.30;;;;;;;;;;5034155;28;20454;-88
2021/07/22 10:02:00;;;;;;;30.47;27.87;;;;;;;;;;5035838;28;20466;-87
2021/07/22 10:04:29;;;;;;;32.00;29.50;;;;;;;;;;5038315;28;20418;-88
2021/07/22 10:06:57;;;;;;;31.20;28.40;;;;;;;;;;5037110;28;20422;-88
2021/07/22 10:09:25;;;;;;;32.27;29.73;;;;;;;;;;5038134;28;20837;-88
2021/07/22 10:11:54;;;;;;;33.60;30.90;;;;;;;;;;5037053;28;20429;-88
2021/07/22 10:14:22;;;;;;;32.53;30.07;;;;;;;;;;5037766;28;20446;-88
2021/07/22 10:16:50;;;;;;;31.43;28.93;;;;;;;;;;5038133;28;20417;-88
2021/07/22 10:19:18;;;;;;;30.93;28.43;;;;;;;;;;5037702;28;20424;-88
2021/07/22 10:21:46;;;;;;;32.00;29.50;;;;;;;;;;5037796;28;20421;-88
2021/07/22 10:24:14;;;;;;;34.97;31.97;;;;;;;;;;5036795;28;20497;-88
2021/07/22 10:26:43;;;;;;;32.13;29.63;;;;;;;;;;5037349;28;20937;-88
2021/07/22 10:29:12;;;;;;;31.63;29.20;;;;;;;;;;5037486;28;20463;-88
2021/07/22 10:31:41;;;;;;;32.67;30.17;;;;;;;;;;5037772;28;20479;-88
2021/07/22 10:34:11;;;;;;;31.47;28.97;;;;;;;;;;5037687;28;20439;-89
2021/07/22 10:36:40;;;;;;;31.17;28.70;;;;;;;;;;5037677;28;20487;-88
2021/07/22 10:39:08;;;;;;;32.20;29.60;;;;;;;;;;5037800;28;20486;-88
2021/07/22 10:41:36;;;;;;;34.47;31.67;;;;;;;;;;5019914;28;20497;-88
2021/07/22 10:44:04;;;;;;;31.93;28.90;;;;;;;;;;5037972;28;20510;-88
2021/07/22 10:47:05;;;;;;;32.53;30.00;;;;;;;;;;5037146;28;20446;-88
2021/07/22 10:49:39;;;;;;;32.30;29.70;;;;;;;;;;5037009;28;20894;-88
2021/07/22 10:52:07;;;;;;;33.13;30.33;;;;;;;;;;5037369;28;20461;-88
2021/07/22 10:54:52;;;;;;;34.40;31.37;;;;;;;;;;5036999;28;20429;-87
2021/07/22 10:57:43;;;;;;;34.70;31.87;;;;;;;;;;5037279;28;20541;-88
2021/07/22 11:00:11;;;;;;;32.90;30.20;;;;;;;;;;5005017;28;20478;-87
2021/07/22 11:02:41;;;;;;;33.57;30.77;;;;;;;;;;5036912;28;20526;-87
2021/07/22 11:05:09;;;;;;;29.87;27.77;;;;;;;;;;5019310;28;20472;-88
2021/07/22 11:07:37;;;;;;;33.07;30.37;;;;;;;;;;5036993;28;20447;-88
2021/07/22 11:10:05;;;;;;;34.13;31.20;;;;;;;;;;5036611;28;20556;-86
2021/07/22 11:12:39;;;;;;;31.77;29.20;;;;;;;;;;5036882;28;20463;-87
2021/07/22 11:15:07;;;;;;;35.03;30.43;;;;;;;;;;5019273;28;20410;-88
2021/07/22 11:17:35;;;;;;;35.53;32.63;;;;;;;;;;5036677;28;20482;-87
2021/07/22 11:20:26;;;;;;;35.23;32.37;;;;;;;;;;5036706;28;20505;-87
2021/07/22 11:22:55;;;;;;;33.30;30.60;;;;;;;;;;5004796;28;20423;-88
2021/07/22 11:25:23;;;;;;;35.60;32.40;;;;;;;;;;5036563;28;20795;-87
2021/07/22 11:27:53;;;;;;;33.57;30.87;;;;;;;;;;5019148;28;20447;-87
2021/07/22 11:30:21;;;;;;;35.20;32.40;;;;;;;;;;5036371;28;20447;-87
2021/07/22 11:32:48;;;;;;;35.63;32.77;;;;;;;;;;5036730;28;20443;-87
2021/07/22 11:35:15;;;;;;;34.93;32.20;;;;;;;;;;5019110;28;20934;-87
2021/07/22 11:37:43;;;;;;;34.53;31.67;;;;;;;;;;5036104;28;20457;-88
2021/07/22 11:40:12;;;;;;;35.87;32.83;;;;;;;;;;5036395;28;20438;-87
2021/07/22 11:42:48;;;;;;;33.87;31.10;;;;;;;;;;5036442;28;20417;-87
2021/07/22 11:45:15;;;;;;;34.30;31.37;;;;;;;;;;5036390;28;20432;-87
2021/07/22 11:47:42;;;;;;;35.27;32.50;;;;;;;;;;5036289;28;20450;-87
2021/07/22 11:50:10;;;;;;;34.70;31.83;;;;;;;;;;5018550;28;20969;-88
2021/07/22 11:52:37;;;;;;;35.27;32.43;;;;;;;;;;5036545;28;20402;-87
2021/07/22 11:55:06;;;;;;;34.23;31.23;;;;;;;;;;5036123;28;20470;-87
2021/07/22 11:57:39;;;;;;;35.43;32.73;;;;;;;;;;5035974;28;20876;-88
2021/07/22 12:00:15;;;;;;;34.80;31.90;;;;;;;;;;5036017;28;20468;-88
2021/07/22 12:02:46;;;;;;;37.67;34.30;;;;;;;;;;5036108;28;20474;-87
2021/07/22 12:05:13;;;;;;;36.40;33.50;;;;;;;;;;5035839;28;20403;-87
2021/07/22 12:07:41;;;;;;;34.80;31.80;;;;;;;;;;5035998;28;20418;-88
2021/07/22 12:10:09;;;;;;;35.03;32.20;;;;;;;;;;5035628;28;20411;-88
2021/07/22 12:12:36;;;;;;;36.60;33.90;;;;;;;;;;5036192;28;20430;-88
2021/07/22 12:15:06;;;;;;;36.80;33.80;;;;;;;;;;5035789;28;20432;-87
2021/07/22 12:17:33;;;;;;;35.67;32.83;;;;;;;;;;5035342;28;20447;-88
2021/07/22 12:20:01;;;;;;;37.70;34.70;;;;;;;;;;5035382;28;20929;-88
2021/07/22 12:22:29;;;;;;;38.97;35.70;;;;;;;;;;5035629;28;20436;-87
2021/07/22 12:24:57;;;;;;;37.37;34.47;;;;;;;;;;5035201;28;20445;-87
2021/07/22 12:27:29;;;;;;;36.47;33.47;;;;;;;;;;5035510;28;20783;-87
2021/07/22 12:29:56;;;;;;;38.80;35.07;;;;;;;;;;5035734;28;20466;-88
2021/07/22 12:32:28;;;;;;;38.27;35.27;;;;;;;;;;5035185;28;20419;-88
2021/07/22 12:34:55;;;;;;;39.90;36.70;;;;;;;;;;5035212;28;20449;-87
2021/07/22 12:37:43;;;;;;;37.87;34.57;;;;;;;;;;5026751;28;20912;-88
2021/07/22 12:40:10;;;;;;;40.80;37.53;;;;;;;;;;5034836;28;20793;-88
2021/07/22 12:42:38;;;;;;;39.60;36.37;;;;;;;;;;5035295;28;20505;-87
2021/07/22 12:45:14;;;;;;;39.70;36.80;;;;;;;;;;5035264;28;20417;-87
2021/07/22 12:47:47;;;;;;;41.47;38.37;;;;;;;;;;5034279;28;20497;-87
2021/07/22 12:50:29;;;;;;;40.70;37.40;;;;;;;;;;5034817;28;20929;-87
2021/07/22 12:52:59;;;;;;;40.77;37.50;;;;;;;;;;5033994;28;20418;-87
2021/07/22 12:55:30;;;;;;;41.40;37.97;;;;;;;;;;5034759;28;20410;-87
2021/07/22 12:57:57;;;;;;;38.40;35.40;;;;;;;;;;5035024;28;20476;-87
2021/07/22 13:00:25;;;;;;;40.20;36.53;;;;;;;;;;5035236;28;20454;-87
2021/07/22 13:02:55;;;;;;;39.10;36.03;;;;;;;;;;5033561;28;20447;-88
2021/07/22 13:05:23;;;;;;;36.40;33.27;;;;;;;;;;5034977;28;20466;-87
2021/07/22 13:07:50;;;;;;;37.60;34.70;;;;;;;;;;5035227;28;20447;-88
2021/07/22 13:10:18;;;;;;;36.83;33.90;;;;;;;;;;5034870;28;20411;-88
2021/07/22 13:12:46;;;;;;;40.23;36.70;;;;;;;;;;5034854;28;20806;-87
2021/07/22 13:15:13;;;;;;;36.60;33.90;;;;;;;;;;5034450;28;20892;-88
2021/07/22 13:17:41;;;;;;;39.63;36.33;;;;;;;;;;5033697;28;20794;-87
2021/07/22 13:20:13;;;;;;;36.70;33.83;;;;;;;;;;5034559;28;20413;-88
2021/07/22 13:22:40;;;;;;;36.60;33.80;;;;;;;;;;5034454;28;20918;-88
2021/07/22 13:25:08;;;;;;;40.07;36.83;;;;;;;;;;5034674;28;20415;-88
2021/07/22 13:27:36;;;;;;;35.93;33.13;;;;;;;;;;5034099;28;20444;-87
2021/07/22 13:30:04;;;;;;;37.97;35.03;;;;;;;;;;5034527;28;20430;-88
2021/07/22 13:32:34;;;;;;;40.50;37.10;;;;;;;;;;5034231;28;20431;-87
2021/07/22 13:35:01;;;;;;;40.27;37.10;;;;;;;;;;5034315;28;20460;-88
2021/07/22 13:37:30;;;;;;;39.63;36.53;;;;;;;;;;5032052;28;20472;-87
2021/07/22 13:39:58;;;;;;;38.13;35.23;;;;;;;;;;5034142;28;20459;-88
2021/07/22 13:42:25;;;;;;;38.47;35.40;;;;;;;;;;5034489;28;20451;-87
2021/07/22 13:44:53;;;;;;;39.60;36.60;;;;;;;;;;5034329;28;20447;-87
2021/07/22 13:47:20;;;;;;;38.60;35.30;;;;;;;;;;5033299;28;20447;-88
2021/07/22 13:49:48;;;;;;;36.10;33.37;;;;;;;;;;5034183;28;20417;-88
2021/07/22 13:52:16;;;;;;;37.47;34.67;;;;;;;;;;5032861;28;20448;-87
2021/07/22 13:54:45;;;;;;;36.17;33.07;;;;;;;;;;5033988;28;20471;-88
2021/07/22 13:57:12;;;;;;;35.60;33.10;;;;;;;;;;5034271;28;20534;-87
2021/07/22 13:59:40;;;;;;;34.77;32.23;;;;;;;;;;5034278;28;20470;-88
2021/07/22 14:02:07;;;;;;;36.30;33.53;;;;;;;;;;5034214;28;20473;-87
2021/07/22 14:04:36;;;;;;;34.97;32.47;;;;;;;;;;5033858;28;20422;-87
2021/07/22 14:07:03;;;;;;;37.83;34.83;;;;;;;;;;5033893;28;20544;-87
2021/07/22 14:09:30;;;;;;;37.37;34.63;;;;;;;;;;5034096;28;20423;-87
2021/07/22 14:11:59;;;;;;;35.77;33.07;;;;;;;;;;5033845;28;20909;-87
2021/07/22 14:14:27;;;;;;;36.87;34.07;;;;;;;;;;5033827;28;20429;-88
2021/07/22 14:16:54;;;;;;;36.07;33.37;;;;;;;;;;5034063;28;20468;-88
2021/07/22 14:19:21;;;;;;;38.50;35.20;;;;;;;;;;5033967;28;20486;-87
2021/07/22 14:21:49;;;;;;;38.27;35.47;;;;;;;;;;5032994;28;20481;-88
2021/07/22 14:24:16;;;;;;;35.40;32.70;;;;;;;;;;5033805;28;20461;-88
2021/07/22 14:26:44;;;;;;;33.90;31.50;;;;;;;;;;5033871;28;20514;-87
2021/07/22 14:29:13;;;;;;;37.27;34.67;;;;;;;;;;5033610;28;20440;-88
2021/07/22 14:31:40;;;;;;;36.33;33.43;;;;;;;;;;5033985;28;20432;-87
2021/07/22 14:34:07;;;;;;;37.50;34.50;;;;;;;;;;5033829;28;20413;-87
2021/07/22 14:36:35;;;;;;;34.53;31.73;;;;;;;;;;5033888;28;20539;-87
2021/07/22 14:39:02;;;;;;;35.80;33.00;;;;;;;;;;5033526;28;20530;-87
2021/07/22 14:41:29;;;;;;;34.37;31.40;;;;;;;;;;5033570;28;20414;-88
2021/07/22 14:43:57;;;;;;;35.50;32.60;;;;;;;;;;5033760;28;20456;-88
2021/07/22 14:46:26;;;;;;;37.10;34.30;;;;;;;;;;5034269;28;20465;-87